Chickasaw, Alabama
Current Conditions -  °F | °C
As of 11:53 PM on Friday 28 Nov 2014 (Local Time) from KBFM Reporting Station
Haze Haze  
Wind Chill: 38°   Ceiling: Unl
Heat Index: 38°   Visibility: 6mi
Dew Point: 37°   Wind: 3mph
Humidity: 97%   Direction: 310°NW
Pressure: 30.28"   Gusts: NA
Location:  30.7759°N, 88.0795°W
Report Text: KBFM 290553Z AUTO 31003KT 6SM BR CLR 03/03 A3028 RMK AO2 SLP255 T00330028 10089 20033 401440033 56010
Loading
Personal Weather Stations






























Interactive Weather Map New forecast layout! Learn more

10-Day Weather Forecast

Advertisements
Track Severe Weather on mobile